»·PEaware :: N172SP KSMX-KBFL

N172SP :: KSMX-KBFL

FLIGHT INFORMATION

Flight Status: Arrived
Operator: Privately registered:
United States
More flights under this callsign
Pilot: Brian D. (22974)
Aircraft: CESSNA 172 SKYHAWK
(C172)
More flights by this aircraft type
Origin: KSMX Santa Maria Pub/Capt Hancock
United States
Destination: KBFL Meadows
United States
More flights between these airports :: More routes between these airports
Route: +DCT
File this flight plan on PilotEdge
Remarks: cat 5
Altitude:
(Current/Filed)
3,500ft
Speed:
(Current/Filed)
100kts
Departed: 11-Jan-19 09:40 PM
Arrived: 11-Jan-19 10:40 PM
Distance/Time
Traveled:
76nm/1:00
Distance/Time
To Go:
Arrived

Flight Plot

Page will automatically refresh every two minutes.


Map Options




Map Legend


Flown Route
Filed Route
Departure Airport
Arrival Airport
Navaid (VOR, NDB)
Fix

Horizontal Profiles

Position Reports

Time Latitude Longitude Heading Altitude Ground
Speed
11-Jan-19 21:30 34.900984 -120.451762 228 265ft 0kts
11-Jan-19 21:31 34.900984 -120.451762 228 265ft 0kts
11-Jan-19 21:32 34.900984 -120.451763 228 265ft 0kts
11-Jan-19 21:33 34.900044 -120.451195 140 265ft 8kts
11-Jan-19 21:34 34.896107 -120.447256 135 265ft 30kts
11-Jan-19 21:35 34.893608 -120.445388 181 265ft 0kts
11-Jan-19 21:36 34.893608 -120.445388 181 265ft 0kts
11-Jan-19 21:37 34.893608 -120.445388 181 265ft 0kts
11-Jan-19 21:38 34.893016 -120.445519 230 265ft 14kts
11-Jan-19 21:39 34.904099 -120.460261 304 953ft 77kts
11-Jan-19 21:40 34.905235 -120.479962 175 2086ft 77kts
11-Jan-19 21:41 34.887196 -120.471708 190 3163ft 74kts
11-Jan-19 21:42 34.868620 -120.470611 133 4142ft 72kts
11-Jan-19 21:43 34.862330 -120.448109 100 5077ft 71kts
11-Jan-19 21:44 34.859129 -120.424721 91 5984ft 65kts
11-Jan-19 21:45 34.861534 -120.400072 74 6538ft 100kts
11-Jan-19 21:46 34.869699 -120.366708 70 6662ft 95kts
11-Jan-19 21:47 34.889474 -120.346359 33 7377ft 96kts
11-Jan-19 21:48 34.911130 -120.328519 34 7500ft 97kts
11-Jan-19 21:49 34.934139 -120.309434 34 7500ft 102kts
11-Jan-19 21:50 34.956140 -120.287384 48 7499ft 103kts
11-Jan-19 21:51 34.972484 -120.258808 59 7499ft 103kts
11-Jan-19 21:52 34.986214 -120.228037 62 7499ft 103kts
11-Jan-19 21:53 34.998919 -120.196860 63 7509ft 102kts
11-Jan-19 21:54 35.011364 -120.165303 64 7509ft 103kts
11-Jan-19 21:55 35.023672 -120.133727 64 7509ft 103kts
11-Jan-19 21:56 35.035961 -120.102062 64 7509ft 103kts
11-Jan-19 21:57 35.048196 -120.070473 64 7509ft 103kts
11-Jan-19 21:58 35.060464 -120.038755 64 7509ft 103kts
11-Jan-19 21:59 35.072605 -120.007327 64 7509ft 102kts
11-Jan-19 22:00 35.084718 -119.975950 64 7509ft 102kts
11-Jan-19 22:01 35.090742 -119.942547 83 7509ft 102kts
11-Jan-19 22:02 35.100187 -119.911246 64 7509ft 102kts
11-Jan-19 22:03 35.112417 -119.880207 63 7510ft 107kts
11-Jan-19 22:04 35.125679 -119.845362 69 7508ft 116kts
11-Jan-19 22:05 35.138015 -119.808832 65 7509ft 116kts
11-Jan-19 22:06 35.151671 -119.772843 64 7509ft 116kts
11-Jan-19 22:07 35.165529 -119.737530 63 7545ft 115kts
11-Jan-19 22:08 35.179541 -119.702115 63 7545ft 116kts
11-Jan-19 22:09 35.193592 -119.666691 63 7545ft 116kts
11-Jan-19 22:10 35.207659 -119.631229 63 7545ft 116kts
11-Jan-19 22:11 35.221691 -119.595806 63 7545ft 116kts
11-Jan-19 22:12 35.235691 -119.560281 63 7545ft 116kts
11-Jan-19 22:13 35.249759 -119.524732 63 7545ft 116kts
11-Jan-19 22:14 35.263831 -119.489185 63 7545ft 116kts
11-Jan-19 22:15 35.277912 -119.453580 63 7545ft 116kts
11-Jan-19 22:16 35.291978 -119.418006 63 7545ft 116kts
11-Jan-19 22:17 35.306263 -119.381913 63 7546ft 123kts
11-Jan-19 22:18 35.320947 -119.344704 64 7544ft 121kts
11-Jan-19 22:19 35.334637 -119.309928 64 7545ft 112kts
11-Jan-19 22:20 35.346810 -119.279035 64 7544ft 91kts
11-Jan-19 22:21 35.357384 -119.252284 64 7545ft 84kts
11-Jan-19 22:22 35.367827 -119.225992 63 7551ft 103kts
11-Jan-19 22:23 35.380225 -119.194036 64 6763ft 105kts
11-Jan-19 22:24 35.392632 -119.162381 64 5523ft 103kts
11-Jan-19 22:25 35.404875 -119.131252 64 4310ft 101kts
11-Jan-19 22:26 35.416892 -119.100677 64 3124ft 99kts
11-Jan-19 22:27 35.435265 -119.081559 8 1958ft 97kts
11-Jan-19 22:28 35.457010 -119.074016 71 1298ft 83kts
11-Jan-19 22:29 35.446613 -119.050489 136 1476ft 86kts
11-Jan-19 22:30 35.430512 -119.028024 131 1545ft 88kts
11-Jan-19 22:31 35.411456 -119.014750 203 1543ft 85kts
11-Jan-19 22:32 35.393830 -119.033276 249 1541ft 85kts
11-Jan-19 22:33 35.405054 -119.056889 311 1545ft 84kts
11-Jan-19 22:34 35.420805 -119.078269 311 1545ft 84kts
11-Jan-19 22:35 35.436905 -119.099187 314 1545ft 84kts
11-Jan-19 22:36 35.455778 -119.114320 7 1543ft 84kts
11-Jan-19 22:37 35.463452 -119.092565 130 1526ft 77kts
11-Jan-19 22:38 35.449700 -119.075489 135 798ft 70kts
11-Jan-19 22:39 35.439203 -119.062623 135 510ft 36kts
11-Jan-19 22:40 35.438244 -119.060209 91 510ft 0kts
11-Jan-19 22:41 35.435592 -119.056099 135 510ft 18kts
11-Jan-19 22:42 35.431069 -119.050610 137 510ft 25kts
11-Jan-19 22:44 35.427750 -119.046093 48 510ft 14kts
11-Jan-19 22:45 35.424579 -119.042409 120 510ft 15kts
11-Jan-19 22:46 35.424761 -119.042212 354 510ft 0kts
11-Jan-19 22:47 35.424761 -119.042212 354 510ft 0kts
11-Jan-19 22:48 35.424761 -119.042212 354 510ft 0kts
11-Jan-19 22:49 35.424761 -119.042212 354 510ft 0kts
11-Jan-19 22:50 35.424761 -119.042212 354 510ft 0kts

Navigation Log

Ident Type
Flight plan parsing failed, navigation log unavailable